Time;durP1;ratioP1;P1;durP2;ratioP2;P2;SDS_P1;SDS_P2;PMS_P1;PMS_P2;Temp;Humidity;BMP_temperature;BMP_pressure;BME280_temperature;BME280_humidity;BME280_pressure;Samples;Min_cycle;Max_cycle;Signal;HPM_P1;HPM_P2
2022/03/20 00:05:41;;;;;;;15.13;13.57;;;;;;;;;;12596218;28;20056;-79
2022/03/20 00:11:42;;;;;;;16.95;15.25;;;;;;;;;;12596778;28;20060;-79
2022/03/20 00:17:44;;;;;;;16.17;14.38;;;;;;;;;;12595184;28;20381;-79
2022/03/20 00:23:46;;;;;;;14.75;13.35;;;;;;;;;;12594491;28;20040;-79
2022/03/20 00:29:48;;;;;;;12.53;11.30;;;;;;;;;;12577566;28;20028;-79
2022/03/20 00:35:50;;;;;;;11.27;10.18;;;;;;;;;;12605507;28;20013;-79
2022/03/20 00:41:52;;;;;;;10.67;9.67;;;;;;;;;;12597134;28;20036;-79
2022/03/20 00:47:53;;;;;;;11.98;10.80;;;;;;;;;;12593383;28;20048;-79
2022/03/20 00:53:55;;;;;;;12.15;10.95;;;;;;;;;;12576980;28;20032;-79
2022/03/20 00:59:57;;;;;;;12.73;11.50;;;;;;;;;;12592917;28;20045;-80
2022/03/20 01:05:59;;;;;;;15.25;13.40;;;;;;;;;;12593835;28;20033;-79
2022/03/20 01:12:01;;;;;;;16.75;15.05;;;;;;;;;;12593616;28;20048;-79
2022/03/20 01:18:03;;;;;;;17.03;15.40;;;;;;;;;;12592015;28;20032;-79
2022/03/20 01:24:04;;;;;;;14.73;13.23;;;;;;;;;;12592967;28;20795;-79
2022/03/20 01:30:06;;;;;;;14.07;12.77;;;;;;;;;;12592876;28;20040;-79
2022/03/20 01:36:08;;;;;;;13.35;12.00;;;;;;;;;;12592500;28;20348;-79
2022/03/20 01:42:10;;;;;;;14.32;12.82;;;;;;;;;;12592727;28;20039;-78
2022/03/20 01:48:11;;;;;;;10.23;9.23;;;;;;;;;;12591566;28;20048;-79
2022/03/20 01:54:14;;;;;;;9.73;8.77;;;;;;;;;;12591029;28;20032;-79
2022/03/20 02:00:20;;;;;;;12.30;11.10;;;;;;;;;;12592361;28;20392;-79
2022/03/20 02:06:22;;;;;;;12.25;11.05;;;;;;;;;;12591740;28;20073;-75
2022/03/20 02:12:24;;;;;;;13.90;12.50;;;;;;;;;;12573855;28;20413;-76
2022/03/20 02:18:26;;;;;;;12.25;11.10;;;;;;;;;;12591459;28;20036;-76
2022/03/20 02:24:33;;;;;;;13.68;12.27;;;;;;;;;;12590136;28;20531;-76
2022/03/20 02:30:35;;;;;;;12.68;11.57;;;;;;;;;;12591814;28;20037;-75
2022/03/20 02:36:37;;;;;;;10.18;9.10;;;;;;;;;;12591026;28;20035;-79
2022/03/20 02:42:41;;;;;;;11.98;10.82;;;;;;;;;;12590451;28;20035;-79
2022/03/20 02:48:45;;;;;;;12.43;11.18;;;;;;;;;;12573991;28;20051;-78
2022/03/20 02:54:46;;;;;;;12.43;11.23;;;;;;;;;;12601508;28;20482;-78
2022/03/20 03:00:48;;;;;;;13.10;11.77;;;;;;;;;;12592279;28;20034;-78
2022/03/20 03:06:50;;;;;;;16.85;15.15;;;;;;;;;;12598315;28;20107;-78
2022/03/20 03:12:51;;;;;;;15.93;14.38;;;;;;;;;;12599699;28;20049;-80
2022/03/20 03:18:53;;;;;;;16.30;14.68;;;;;;;;;;12599652;28;20035;-80
2022/03/20 03:24:55;;;;;;;17.58;15.77;;;;;;;;;;12611217;28;20044;-79
2022/03/20 03:30:58;;;;;;;16.03;14.43;;;;;;;;;;12598735;28;20043;-79
2022/03/20 03:37:00;;;;;;;16.63;14.85;;;;;;;;;;12598133;28;20532;-79
2022/03/20 03:43:02;;;;;;;15.23;13.63;;;;;;;;;;12598843;28;20458;-78
2022/03/20 03:49:04;;;;;;;13.75;12.35;;;;;;;;;;12597546;28;20041;-79
2022/03/20 03:55:06;;;;;;;14.25;12.85;;;;;;;;;;12599954;28;20032;-79
2022/03/20 04:01:09;;;;;;;16.48;14.73;;;;;;;;;;12600903;28;20028;-79
2022/03/20 04:07:10;;;;;;;;;;;;;;;;;;12598834;28;20063;-79
2022/03/20 04:13:12;;;;;;;16.63;14.77;;;;;;;;;;12598174;28;19920;-78
2022/03/20 04:19:16;;;;;;;16.10;14.50;;;;;;;;;;12605937;28;20032;-79
2022/03/20 04:25:17;;;;;;;15.60;14.20;;;;;;;;;;12594085;28;20044;-79
2022/03/20 04:31:20;;;;;;;17.65;15.85;;;;;;;;;;12594677;28;20485;-79
2022/03/20 04:37:21;;;;;;;16.30;14.67;;;;;;;;;;12594880;28;20044;-79
2022/03/20 04:43:23;;;;;;;14.77;13.27;;;;;;;;;;12598047;28;20516;-76
2022/03/20 05:02:06;;;;;;;16.52;14.82;;;;;;;;;;12591862;28;20045;-76
2022/03/20 05:08:07;;;;;;;18.10;16.33;;;;;;;;;;12591716;28;20044;-77
2022/03/20 05:14:09;;;;;;;21.13;18.98;;;;;;;;;;12592502;28;20063;-77
2022/03/20 05:20:11;;;;;;;18.15;16.40;;;;;;;;;;12592524;28;20033;-77
2022/03/20 05:26:13;;;;;;;17.83;16.13;;;;;;;;;;12596313;28;20048;-79
2022/03/20 05:32:15;;;;;;;17.88;16.08;;;;;;;;;;12591546;28;20024;-80
2022/03/20 05:38:17;;;;;;;16.45;14.85;;;;;;;;;;12590626;28;20044;-80
2022/03/20 05:44:23;;;;;;;19.73;17.60;;;;;;;;;;12592749;28;20048;-80
2022/03/20 05:50:25;;;;;;;17.25;15.20;;;;;;;;;;12591125;28;20032;-79
2022/03/20 06:02:47;;;;;;;15.85;14.25;;;;;;;;;;12598460;28;20032;-79
2022/03/20 06:08:49;;;;;;;16.73;15.10;;;;;;;;;;12597266;28;20063;-80
2022/03/20 06:14:51;;;;;;;17.40;15.63;;;;;;;;;;12590440;28;20576;-80
2022/03/20 06:20:53;;;;;;;16.45;14.80;;;;;;;;;;12591418;28;20044;-80
2022/03/20 06:26:54;;;;;;;19.30;17.38;;;;;;;;;;12589759;28;20044;-78
2022/03/20 06:32:56;;;;;;;18.85;16.95;;;;;;;;;;12589633;28;20067;-78
2022/03/20 06:38:58;;;;;;;19.55;17.45;;;;;;;;;;12598353;28;20485;-78
2022/03/20 06:45:00;;;;;;;17.73;15.68;;;;;;;;;;12601431;28;20044;-78
2022/03/20 06:51:04;;;;;;;19.77;17.58;;;;;;;;;;12599913;28;20051;-78
2022/03/20 06:57:05;;;;;;;20.40;18.25;;;;;;;;;;12599957;28;20029;-78
2022/03/20 07:03:08;;;;;;;20.80;18.65;;;;;;;;;;12598326;28;20040;-79
2022/03/20 07:09:10;;;;;;;19.17;17.17;;;;;;;;;;12598028;28;20052;-78
2022/03/20 07:15:12;;;;;;;20.05;17.95;;;;;;;;;;12583940;28;20048;-78
2022/03/20 07:21:18;;;;;;;19.73;17.73;;;;;;;;;;12598754;28;20028;-79
2022/03/20 07:33:41;;;;;;;18.85;16.90;;;;;;;;;;12599326;28;20033;-78
2022/03/20 07:39:52;;;;;;;20.37;18.13;;;;;;;;;;12600735;28;20032;-78
2022/03/20 07:45:56;;;;;;;20.42;17.92;;;;;;;;;;12611311;28;20505;-79
2022/03/20 07:51:58;;;;;;;19.88;17.67;;;;;;;;;;12600041;28;20039;-78
2022/03/20 07:58:00;;;;;;;18.25;16.45;;;;;;;;;;12599748;28;20421;-79
2022/03/20 08:04:02;;;;;;;19.02;17.00;;;;;;;;;;12599249;28;20051;-78
2022/03/20 08:10:07;;;;;;;19.13;17.13;;;;;;;;;;12598990;28;20029;-78
2022/03/20 08:16:12;;;;;;;16.88;15.18;;;;;;;;;;12597540;28;20045;-78
2022/03/20 08:22:14;;;;;;;17.15;15.43;;;;;;;;;;12607191;28;20396;-78
2022/03/20 08:28:15;;;;;;;16.65;15.02;;;;;;;;;;12596068;28;20044;-78
2022/03/20 08:34:17;;;;;;;15.13;13.73;;;;;;;;;;12594449;28;20031;-78
2022/03/20 08:40:20;;;;;;;14.20;12.80;;;;;;;;;;12595982;28;20044;-78
2022/03/20 08:46:23;;;;;;;14.10;12.60;;;;;;;;;;12593511;28;20397;-78
2022/03/20 08:52:24;;;;;;;15.50;13.93;;;;;;;;;;12593249;28;20039;-78
2022/03/20 08:58:26;;;;;;;12.32;11.10;;;;;;;;;;12593060;28;20036;-79
2022/03/20 09:04:28;;;;;;;13.75;12.35;;;;;;;;;;12592723;28;20052;-79
2022/03/20 09:10:29;;;;;;;14.13;12.57;;;;;;;;;;12592689;28;20059;-79
2022/03/20 09:22:52;;;;;;;13.52;11.35;;;;;;;;;;12601517;28;20044;-78
2022/03/20 09:28:54;;;;;;;10.93;9.73;;;;;;;;;;12597131;28;20040;-79
2022/03/20 09:34:56;;;;;;;12.93;11.70;;;;;;;;;;12591088;28;20405;-79
2022/03/20 09:40:59;;;;;;;10.17;9.17;;;;;;;;;;12590914;28;20036;-79
2022/03/20 09:47:01;;;;;;;10.13;9.13;;;;;;;;;;12590736;28;20055;-78
2022/03/20 09:53:03;;;;;;;10.13;9.13;;;;;;;;;;12592541;28;20028;-78
2022/03/20 09:59:05;;;;;;;12.15;10.10;;;;;;;;;;12603426;28;20043;-78
2022/03/20 10:05:08;;;;;;;10.48;8.80;;;;;;;;;;12590145;28;20051;-79
2022/03/20 10:11:16;;;;;;;8.45;7.03;;;;;;;;;;12591116;28;20040;-78
2022/03/20 10:17:19;;;;;;;9.48;8.52;;;;;;;;;;12592855;28;20512;-78
2022/03/20 10:23:22;;;;;;;;;;;;;;;;;;12597735;28;20033;-79
2022/03/20 10:29:23;;;;;;;11.00;9.82;;;;;;;;;;12593456;28;20301;-79
2022/03/20 10:35:25;;;;;;;9.77;8.77;;;;;;;;;;12592147;28;20024;-78
2022/03/20 10:41:34;;;;;;;9.90;8.90;;;;;;;;;;12594814;28;20474;-79
2022/03/20 10:47:36;;;;;;;9.73;8.77;;;;;;;;;;12592719;28;20055;-79
2022/03/20 10:53:58;;;;;;;12.55;9.48;;;;;;;;;;12595930;28;20024;-79
2022/03/20 11:00:14;;;;;;;11.80;8.75;;;;;;;;;;12605239;28;20599;-78
2022/03/20 11:06:16;;;;;;;10.68;9.68;;;;;;;;;;12590363;28;20405;-78
2022/03/20 11:12:22;;;;;;;11.82;10.00;;;;;;;;;;12589383;28;20091;-78
2022/03/20 11:18:26;;;;;;;11.20;9.25;;;;;;;;;;12588669;28;20025;-78
2022/03/20 11:24:28;;;;;;;12.55;9.57;;;;;;;;;;12595062;28;20067;-78
2022/03/20 11:30:36;;;;;;;9.50;8.50;;;;;;;;;;12597996;28;20032;-78
2022/03/20 11:37:09;;;;;;;7.72;7.03;;;;;;;;;;12596883;28;20033;-78
2022/03/20 11:43:15;;;;;;;8.68;7.78;;;;;;;;;;12601165;28;20469;-78
2022/03/20 11:49:17;;;;;;;8.60;7.70;;;;;;;;;;12600094;28;20044;-80
2022/03/20 11:55:32;;;;;;;8.68;7.40;;;;;;;;;;12599496;28;20028;-78
2022/03/20 12:01:54;;;;;;;9.07;6.53;;;;;;;;;;12602026;28;20032;-78
2022/03/20 12:08:15;;;;;;;9.38;7.78;;;;;;;;;;12599293;28;20427;-78
2022/03/20 12:14:30;;;;;;;8.25;7.45;;;;;;;;;;12599649;28;20063;-78
2022/03/20 12:20:51;;;;;;;7.38;6.63;;;;;;;;;;12598855;28;20043;-79
2022/03/20 12:26:54;;;;;;;8.73;6.45;;;;;;;;;;12597610;28;20055;-79
2022/03/20 12:32:58;;;;;;;8.88;7.47;;;;;;;;;;12604292;28;20388;-76
2022/03/20 12:38:59;;;;;;;7.38;6.68;;;;;;;;;;12598025;28;20512;-76
2022/03/20 12:45:03;;;;;;;8.10;7.30;;;;;;;;;;12597020;28;20044;-75
2022/03/20 12:51:10;;;;;;;9.20;8.30;;;;;;;;;;12596903;28;20027;-76
2022/03/20 12:57:12;;;;;;;7.72;7.03;;;;;;;;;;12594962;28;20035;-78
2022/03/20 13:03:15;;;;;;;7.15;6.45;;;;;;;;;;12594829;28;20499;-76
2022/03/20 13:09:16;;;;;;;9.25;8.05;;;;;;;;;;12604830;28;20403;-76
2022/03/20 13:15:22;;;;;;;8.13;7.33;;;;;;;;;;12596884;28;20052;-76
2022/03/20 13:21:24;;;;;;;6.93;6.18;;;;;;;;;;12596134;28;20043;-76
2022/03/20 13:27:37;;;;;;;9.03;8.23;;;;;;;;;;12594713;28;20040;-76
2022/03/20 13:33:48;;;;;;;9.57;8.68;;;;;;;;;;12592598;28;20033;-78
2022/03/20 13:39:54;;;;;;;7.75;6.93;;;;;;;;;;12592699;28;20029;-78
2022/03/20 13:45:56;;;;;;;7.65;6.85;;;;;;;;;;12597357;28;20032;-79
2022/03/20 13:51:57;;;;;;;10.40;9.40;;;;;;;;;;12600253;28;20024;-78
2022/03/20 13:58:00;;;;;;;7.97;7.18;;;;;;;;;;12592132;28;20716;-79
2022/03/20 14:04:12;;;;;;;8.20;7.40;;;;;;;;;;12590785;28;20029;-76
2022/03/20 14:10:18;;;;;;;8.83;7.67;;;;;;;;;;12590384;28;20049;-76
2022/03/20 14:16:19;;;;;;;6.93;6.22;;;;;;;;;;12591714;28;20073;-75
2022/03/20 14:22:22;;;;;;;6.85;6.25;;;;;;;;;;12572922;28;20055;-75
2022/03/20 14:28:25;;;;;;;7.45;6.75;;;;;;;;;;12588584;28;20036;-75
2022/03/20 14:40:51;;;;;;;6.68;5.97;;;;;;;;;;12588562;28;20029;-76
2022/03/20 14:46:55;;;;;;;7.47;6.77;;;;;;;;;;12589051;28;20041;-75
2022/03/20 14:52:57;;;;;;;6.13;5.53;;;;;;;;;;12595186;28;20020;-75
2022/03/20 14:59:02;;;;;;;7.03;6.40;;;;;;;;;;12598255;28;20392;-75
2022/03/20 15:05:03;;;;;;;8.40;6.47;;;;;;;;;;12601547;28;20036;-75
2022/03/20 15:17:25;;;;;;;7.55;6.85;;;;;;;;;;12598903;28;20403;-75
2022/03/20 15:23:27;;;;;;;13.93;10.03;;;;;;;;;;12596675;28;20063;-75
2022/03/20 15:29:30;;;;;;;15.40;11.07;;;;;;;;;;12596994;28;20033;-77
2022/03/20 15:35:32;;;;;;;10.68;8.02;;;;;;;;;;12597266;28;20025;-75
2022/03/20 15:41:35;;;;;;;9.53;7.10;;;;;;;;;;12597210;28;20040;-75
2022/03/20 15:47:37;;;;;;;8.45;6.75;;;;;;;;;;12606107;28;20421;-75
2022/03/20 15:53:39;;;;;;;7.13;6.43;;;;;;;;;;12595943;28;20041;-75
2022/03/20 15:59:41;;;;;;;6.30;5.70;;;;;;;;;;12595920;28;20400;-75
2022/03/20 16:05:44;;;;;;;5.90;5.30;;;;;;;;;;12595533;28;20404;-76
2022/03/20 16:11:46;;;;;;;6.32;5.82;;;;;;;;;;12604177;28;20409;-76
2022/03/20 16:17:47;;;;;;;6.00;5.47;;;;;;;;;;12593595;28;20033;-76
2022/03/20 16:30:10;;;;;;;5.10;4.60;;;;;;;;;;12595112;28;20044;-75
2022/03/20 16:36:12;;;;;;;5.22;4.72;;;;;;;;;;12594009;28;20045;-75
2022/03/20 16:42:15;;;;;;;5.53;5.00;;;;;;;;;;12593938;28;20566;-76
2022/03/20 16:48:23;;;;;;;5.65;4.40;;;;;;;;;;12592040;28;20047;-77
2022/03/20 16:54:25;;;;;;;4.25;3.85;;;;;;;;;;12593377;28;20042;-76
2022/03/20 17:00:27;;;;;;;;;;;;;;;;;;12594943;28;20044;-76
2022/03/20 17:06:29;;;;;;;4.47;3.58;;;;;;;;;;12593212;28;20277;-79
2022/03/20 17:12:31;;;;;;;4.10;3.70;;;;;;;;;;12603552;28;20060;-79
2022/03/20 17:18:33;;;;;;;4.00;3.50;;;;;;;;;;12591746;28;20028;-78
2022/03/20 17:24:34;;;;;;;4.32;3.47;;;;;;;;;;12591993;28;20036;-79
2022/03/20 17:30:37;;;;;;;5.15;4.10;;;;;;;;;;12592514;28;20313;-79
2022/03/20 17:36:40;;;;;;;5.00;4.50;;;;;;;;;;12601954;28;20142;-76
2022/03/20 17:42:44;;;;;;;6.78;5.00;;;;;;;;;;12594788;28;20032;-76
2022/03/20 17:48:47;;;;;;;5.55;4.97;;;;;;;;;;12591742;28;20044;-76
2022/03/20 17:54:49;;;;;;;6.63;5.70;;;;;;;;;;12591299;28;20050;-76
2022/03/20 18:00:51;;;;;;;7.50;6.75;;;;;;;;;;12590329;28;20024;-76
2022/03/20 18:13:13;;;;;;;7.75;7.00;;;;;;;;;;12591735;28;20060;-76
2022/03/20 18:19:14;;;;;;;9.27;8.05;;;;;;;;;;12590841;28;20388;-77
2022/03/20 18:25:17;;;;;;;8.23;6.45;;;;;;;;;;12589722;28;20043;-76
2022/03/20 18:31:19;;;;;;;;;;;;;;;;;;12593980;28;20059;-79
2022/03/20 18:37:20;;;;;;;10.02;9.02;;;;;;;;;;12599634;28;20392;-76
2022/03/20 18:43:23;;;;;;;10.32;9.32;;;;;;;;;;12600351;28;20037;-76
2022/03/20 18:49:27;;;;;;;13.55;12.18;;;;;;;;;;12612061;28;20041;-76
2022/03/20 18:55:29;;;;;;;14.15;12.70;;;;;;;;;;12598691;28;20033;-76
2022/03/20 19:01:30;;;;;;;11.82;10.63;;;;;;;;;;12598125;28;20389;-76
2022/03/20 19:07:32;;;;;;;11.13;9.93;;;;;;;;;;12598981;28;20033;-76
2022/03/20 19:13:34;;;;;;;11.82;10.57;;;;;;;;;;12598431;28;20483;-76
2022/03/20 19:19:36;;;;;;;11.33;10.23;;;;;;;;;;12596932;28;20033;-79
2022/03/20 19:25:38;;;;;;;10.67;9.53;;;;;;;;;;12598053;28;20519;-79
2022/03/20 19:31:40;;;;;;;9.43;8.52;;;;;;;;;;12597903;28;20493;-79
2022/03/20 19:44:03;;;;;;;9.65;8.70;;;;;;;;;;12597118;28;20048;-79
2022/03/20 19:50:06;;;;;;;8.80;7.88;;;;;;;;;;12597187;28;20489;-79
2022/03/20 19:56:08;;;;;;;7.32;6.63;;;;;;;;;;12597177;28;20024;-79
2022/03/20 20:02:09;;;;;;;6.35;5.75;;;;;;;;;;12597033;28;20032;-80
2022/03/20 20:08:11;;;;;;;8.60;6.93;;;;;;;;;;12596665;28;20047;-79
2022/03/20 20:20:33;;;;;;;7.00;6.30;;;;;;;;;;12597127;28;20033;-79
2022/03/20 20:26:35;;;;;;;5.33;4.80;;;;;;;;;;12610206;28;20086;-79
2022/03/20 20:32:39;;;;;;;5.87;5.30;;;;;;;;;;12597914;28;20040;-79
2022/03/20 20:38:40;;;;;;;5.45;5.00;;;;;;;;;;12596878;28;20040;-79
2022/03/20 20:44:42;;;;;;;4.53;4.10;;;;;;;;;;12598989;28;20363;-78
2022/03/20 20:50:44;;;;;;;5.55;5.03;;;;;;;;;;12596118;28;20044;-80
2022/03/20 20:56:46;;;;;;;6.33;5.73;;;;;;;;;;12596600;28;20025;-78
2022/03/20 21:02:48;;;;;;;5.53;5.00;;;;;;;;;;12596735;28;20036;-79
2022/03/20 21:15:10;;;;;;;5.57;5.07;;;;;;;;;;12596440;28;20409;-80
2022/03/20 21:21:13;;;;;;;7.22;5.53;;;;;;;;;;12595217;28;20409;-79
2022/03/20 21:27:15;;;;;;;7.30;5.63;;;;;;;;;;12592753;28;20046;-79
2022/03/20 21:33:17;;;;;;;6.93;5.45;;;;;;;;;;12609086;28;20039;-78
2022/03/20 21:39:19;;;;;;;5.78;5.13;;;;;;;;;;12592339;28;20516;-79
2022/03/20 21:45:20;;;;;;;7.20;6.50;;;;;;;;;;12593233;28;20048;-79
2022/03/20 21:51:22;;;;;;;7.25;6.55;;;;;;;;;;12590981;28;20485;-79
2022/03/20 21:57:24;;;;;;;7.15;6.15;;;;;;;;;;12592264;28;20051;-79
2022/03/20 22:03:26;;;;;;;6.60;6.00;;;;;;;;;;12590471;28;20036;-79
2022/03/20 22:09:28;;;;;;;7.63;6.82;;;;;;;;;;12590968;28;20048;-79
2022/03/20 22:15:29;;;;;;;6.82;6.22;;;;;;;;;;12594153;28;20413;-79
2022/03/20 22:21:31;;;;;;;5.60;5.10;;;;;;;;;;12597326;28;20067;-79
2022/03/20 22:27:35;;;;;;;6.45;5.90;;;;;;;;;;12594434;28;20059;-79
2022/03/20 22:33:37;;;;;;;7.22;6.15;;;;;;;;;;12594541;28;20400;-76
2022/03/20 22:39:39;;;;;;;6.65;6.07;;;;;;;;;;12593567;28;20044;-76
2022/03/20 22:45:41;;;;;;;7.85;6.15;;;;;;;;;;12591753;28;20496;-76
2022/03/20 22:51:43;;;;;;;6.88;5.53;;;;;;;;;;12592986;28;20029;-76
2022/03/20 22:57:45;;;;;;;6.00;5.40;;;;;;;;;;12593372;28;20389;-76
2022/03/20 23:03:47;;;;;;;7.63;6.38;;;;;;;;;;12591799;28;20028;-76
2022/03/20 23:09:48;;;;;;;7.35;6.65;;;;;;;;;;12592285;28;20036;-77
2022/03/20 23:15:50;;;;;;;6.03;5.43;;;;;;;;;;12593623;28;20057;-76
2022/03/20 23:21:54;;;;;;;6.22;4.55;;;;;;;;;;12601589;28;20397;-76
2022/03/20 23:27:56;;;;;;;6.40;4.93;;;;;;;;;;12599693;28;20044;-76
2022/03/20 23:33:58;;;;;;;5.95;5.32;;;;;;;;;;12600777;28;20039;-80
2022/03/20 23:40:00;;;;;;;6.15;5.55;;;;;;;;;;12600973;28;20044;-79
2022/03/20 23:46:02;;;;;;;5.43;4.90;;;;;;;;;;12602316;28;20146;-76
2022/03/20 23:52:04;;;;;;;4.68;3.88;;;;;;;;;;12599351;28;20214;-76
2022/03/20 23:58:10;;;;;;;3.85;3.47;;;;;;;;;;12598920;28;20239;-76
